Time;durP1;ratioP1;P1;durP2;ratioP2;P2;SDS_P1;SDS_P2;PMS_P1;PMS_P2;Temp;Humidity;BMP_temperature;BMP_pressure;BME280_temperature;BME280_humidity;BME280_pressure;Samples;Min_cycle;Max_cycle;Signal;HPM_P1;HPM_P2
2024/02/15 00:01:00;;;;;;;20.15;12.85;;;1.30;99.90;;;;;;5110345;28;20036;-59
2024/02/15 00:03:27;;;;;;;25.40;16.25;;;1.30;99.90;;;;;;5113624;27;20048;-59
2024/02/15 00:05:54;;;;;;;24.10;15.05;;;1.30;99.90;;;;;;5109927;28;20054;-58
2024/02/15 00:08:21;;;;;;;23.23;14.60;;;1.20;99.90;;;;;;5110589;28;20127;-58
2024/02/15 00:10:48;;;;;;;24.17;15.68;;;1.20;99.90;;;;;;5110552;28;20050;-59
2024/02/15 00:13:15;;;;;;;23.88;15.82;;;1.20;99.90;;;;;;5107202;28;20051;-59
2024/02/15 00:15:42;;;;;;;24.08;15.35;;;1.20;99.90;;;;;;5110768;28;20053;-64
2024/02/15 00:18:09;;;;;;;28.95;16.90;;;1.20;99.90;;;;;;5106245;28;20739;-58
2024/02/15 00:20:36;;;;;;;28.45;16.83;;;1.20;99.90;;;;;;5110524;28;20055;-57
2024/02/15 00:23:03;;;;;;;25.85;16.05;;;1.20;99.90;;;;;;5108007;28;20049;-58
2024/02/15 00:25:30;;;;;;;21.48;13.90;;;1.10;99.90;;;;;;5110567;28;20059;-57
2024/02/15 00:28:00;;;;;;;25.17;16.65;;;1.20;99.90;;;;;;5107367;28;20048;-61
2024/02/15 00:30:27;;;;;;;24.88;16.48;;;1.10;99.90;;;;;;5109687;28;20410;-58
2024/02/15 00:32:54;;;;;;;25.98;15.93;;;1.20;99.90;;;;;;5108301;28;20040;-60
2024/02/15 00:35:22;;;;;;;23.85;15.63;;;1.10;99.90;;;;;;5108028;28;20047;-60
2024/02/15 00:37:50;;;;;;;27.27;16.70;;;1.20;99.90;;;;;;5107132;28;20048;-61
2024/02/15 00:40:17;;;;;;;30.02;17.85;;;1.10;99.90;;;;;;5106144;27;20051;-58
2024/02/15 00:42:44;;;;;;;30.08;17.60;;;1.20;99.90;;;;;;5108955;28;20061;-58
2024/02/15 00:45:11;;;;;;;28.58;18.13;;;1.20;99.90;;;;;;5107461;28;20047;-60
2024/02/15 00:47:41;;;;;;;35.67;20.83;;;1.20;99.90;;;;;;5105807;28;20064;-59
2024/02/15 00:50:10;;;;;;;29.63;20.08;;;1.20;99.90;;;;;;5109268;28;20579;-59
2024/02/15 00:52:37;;;;;;;27.48;17.63;;;1.20;99.90;;;;;;5108964;28;20134;-58
2024/02/15 00:55:04;;;;;;;29.48;17.77;;;1.20;99.90;;;;;;5106955;28;20510;-58
2024/02/15 00:57:31;;;;;;;31.48;19.50;;;1.20;99.90;;;;;;5107429;28;20048;-59
2024/02/15 00:59:59;;;;;;;32.15;20.20;;;1.20;99.90;;;;;;5105880;27;20054;-59
2024/02/15 01:02:27;;;;;;;30.52;21.98;;;1.30;99.90;;;;;;5107807;28;20491;-62
2024/02/15 01:04:57;;;;;;;35.97;23.13;;;1.30;99.90;;;;;;5105825;28;20478;-60
2024/02/15 01:07:27;;;;;;;34.95;21.83;;;1.30;99.90;;;;;;5107804;28;20051;-59
2024/02/15 01:09:54;;;;;;;35.35;24.13;;;1.30;99.90;;;;;;5105635;28;20115;-61
2024/02/15 01:12:21;;;;;;;34.55;20.58;;;1.30;99.90;;;;;;5110074;28;20051;-58
2024/02/15 01:14:48;;;;;;;44.22;24.50;;;1.30;99.90;;;;;;5109439;28;20048;-59
2024/02/15 01:17:15;;;;;;;40.65;27.20;;;1.30;99.90;;;;;;5107584;28;20130;-58
2024/02/15 01:19:42;;;;;;;40.35;25.33;;;1.30;99.90;;;;;;5108570;28;20040;-60
2024/02/15 01:22:09;;;;;;;41.30;26.00;;;1.40;99.90;;;;;;5108065;28;20131;-59
2024/02/15 01:24:36;;;;;;;46.53;24.90;;;1.40;99.90;;;;;;5107468;28;20067;-59
2024/02/15 01:27:03;;;;;;;43.20;25.65;;;1.40;99.90;;;;;;5108306;28;20044;-58
2024/02/15 01:29:30;;;;;;;39.28;25.45;;;1.40;99.90;;;;;;5108196;28;20032;-59
2024/02/15 01:31:57;;;;;;;40.03;25.30;;;1.40;99.90;;;;;;5109537;28;20407;-63
2024/02/15 01:34:24;;;;;;;36.63;23.70;;;1.40;99.90;;;;;;5104997;28;20040;-59
2024/02/15 01:36:51;;;;;;;40.38;24.75;;;1.40;99.90;;;;;;5108210;28;20482;-57
2024/02/15 01:39:18;;;;;;;39.05;22.80;;;1.40;99.90;;;;;;5105266;28;20051;-59
2024/02/15 01:41:55;;;;;;;41.92;23.13;;;1.40;99.90;;;;;;5105822;28;20149;-62
2024/02/15 01:44:24;;;;;;;41.10;22.13;;;1.50;99.90;;;;;;5106932;28;20053;-58
2024/02/15 01:46:55;;;;;;;41.35;23.15;;;1.50;99.90;;;;;;5105213;28;20602;-58
2024/02/15 01:49:22;;;;;;;;;;;1.50;99.90;;;;;;5107224;27;20050;-58
2024/02/15 01:51:56;;;;;;;43.13;22.95;;;1.50;99.90;;;;;;5107648;28;19923;-61
2024/02/15 01:54:24;;;;;;;45.38;24.15;;;1.50;99.90;;;;;;5105449;28;20043;-60
2024/02/15 01:56:54;;;;;;;47.25;24.00;;;1.50;99.90;;;;;;5108891;28;20104;-59
2024/02/15 01:59:23;;;;;;;41.83;24.92;;;1.50;99.90;;;;;;5106289;28;20120;-60
2024/02/15 02:01:50;;;;;;;53.85;25.75;;;1.40;99.90;;;;;;5105048;28;20065;-62
2024/02/15 02:04:17;;;;;;;48.50;25.33;;;1.40;99.90;;;;;;5108548;28;20052;-57
2024/02/15 02:06:44;;;;;;;55.53;28.23;;;1.40;99.90;;;;;;5100536;28;20121;-58
2024/02/15 02:09:12;;;;;;;52.60;24.80;;;1.40;99.90;;;;;;5107981;28;20808;-60
2024/02/15 02:11:46;;;;;;;53.47;23.65;;;1.40;99.90;;;;;;5107997;28;20098;-58
2024/02/15 02:14:13;;;;;;;50.88;25.85;;;1.40;99.90;;;;;;5107484;28;20055;-59
2024/02/15 02:16:41;;;;;;;42.92;22.42;;;1.40;99.90;;;;;;5108313;28;20043;-58
2024/02/15 02:19:09;;;;;;;64.85;22.88;;;1.40;99.90;;;;;;5107374;28;20441;-58
2024/02/15 02:21:38;;;;;;;64.97;24.52;;;1.40;99.90;;;;;;5105829;28;20044;-57
2024/02/15 02:24:12;;;;;;;45.72;22.02;;;1.40;99.90;;;;;;5103953;28;20432;-58
2024/02/15 02:26:40;;;;;;;57.70;23.17;;;1.40;99.90;;;;;;5105895;28;20043;-60
2024/02/15 02:29:08;;;;;;;55.08;21.58;;;1.40;99.90;;;;;;5106986;28;20493;-65
2024/02/15 02:31:35;;;;;;;44.75;21.15;;;1.40;99.90;;;;;;5104902;28;20436;-58
2024/02/15 02:34:03;;;;;;;57.42;22.63;;;1.40;99.90;;;;;;5104875;28;20048;-62
2024/02/15 02:36:30;;;;;;;47.08;20.48;;;1.40;99.90;;;;;;5104336;28;20558;-59
2024/02/15 02:39:00;;;;;;;74.50;24.27;;;1.30;99.90;;;;;;5108867;28;20424;-60
2024/02/15 02:41:28;;;;;;;;;;;1.30;99.90;;;;;;5100991;28;20048;-57
2024/02/15 02:43:58;;;;;;;41.10;19.75;;;1.30;99.90;;;;;;5107667;28;19923;-61
2024/02/15 02:46:25;;;;;;;48.13;19.88;;;1.40;99.90;;;;;;5106589;28;20401;-60
2024/02/15 02:48:53;;;;;;;48.33;21.33;;;1.30;99.90;;;;;;5106987;28;20047;-57
2024/02/15 02:51:20;;;;;;;53.45;21.42;;;1.30;99.90;;;;;;5106809;28;20059;-60
2024/02/15 02:53:47;;;;;;;43.72;20.55;;;1.30;99.90;;;;;;5104364;28;20043;-58
2024/02/15 02:56:14;;;;;;;43.10;19.08;;;1.30;99.90;;;;;;5108751;28;20071;-57
2024/02/15 02:58:44;;;;;;;42.20;20.50;;;1.30;99.90;;;;;;5104448;28;20044;-59
2024/02/15 03:01:11;;;;;;;42.25;20.45;;;1.30;99.90;;;;;;5112054;28;20047;-60
2024/02/15 03:03:39;;;;;;;53.72;23.02;;;1.30;99.90;;;;;;5109829;28;20569;-60
2024/02/15 03:06:06;;;;;;;55.47;21.40;;;1.30;99.90;;;;;;5112380;28;20050;-57
2024/02/15 03:08:33;;;;;;;66.53;22.63;;;1.30;99.90;;;;;;5112235;28;20070;-59
2024/02/15 03:11:01;;;;;;;63.13;22.80;;;1.30;99.90;;;;;;5110062;28;20043;-64
2024/02/15 03:13:29;;;;;;;59.00;20.05;;;1.30;99.90;;;;;;5110608;28;20097;-58
2024/02/15 03:15:56;;;;;;;47.70;21.05;;;1.30;99.90;;;;;;5103304;27;20035;-62
2024/02/15 03:18:24;;;;;;;50.95;19.40;;;1.40;99.90;;;;;;5110915;28;20048;-58
2024/02/15 03:20:51;;;;;;;80.78;23.42;;;1.40;99.90;;;;;;5106522;28;20048;-59
2024/02/15 03:23:18;;;;;;;84.70;20.83;;;1.40;99.90;;;;;;5104633;28;20083;-63
2024/02/15 03:25:45;;;;;;;76.82;21.80;;;1.40;99.90;;;;;;5109403;28;20051;-61
2024/02/15 03:28:12;;;;;;;56.28;21.33;;;1.50;99.90;;;;;;5109567;28;20046;-60
2024/02/15 03:30:39;;;;;;;90.72;24.65;;;1.50;99.90;;;;;;5110239;28;20050;-62
2024/02/15 03:33:06;;;;;;;81.07;25.08;;;1.50;99.90;;;;;;5107067;28;20422;-58
2024/02/15 03:35:34;;;;;;;68.03;23.80;;;1.50;99.90;;;;;;5107935;28;20051;-58
2024/02/15 03:38:02;;;;;;;68.88;24.42;;;1.50;99.90;;;;;;5111248;28;20126;-60
2024/02/15 03:40:30;;;;;;;64.85;21.80;;;1.50;99.90;;;;;;5106438;28;20143;-59
2024/02/15 03:42:58;;;;;;;47.75;20.42;;;1.60;99.90;;;;;;5111136;28;20071;-59
2024/02/15 03:45:25;;;;;;;56.08;25.08;;;1.60;99.90;;;;;;5110767;28;20046;-59
2024/02/15 03:47:53;;;;;;;69.50;26.92;;;1.60;99.90;;;;;;5108966;28;20052;-61
2024/02/15 03:50:24;;;;;;;64.47;26.63;;;1.60;99.90;;;;;;5105083;28;20040;-58
2024/02/15 03:52:51;;;;;;;62.45;25.75;;;1.60;99.90;;;;;;5107053;28;20043;-63
2024/02/15 03:55:18;;;;;;;51.97;24.30;;;1.60;99.90;;;;;;5110054;28;20461;-60
2024/02/15 03:57:46;;;;;;;47.17;23.40;;;1.60;99.90;;;;;;5109745;28;20042;-62
2024/02/15 04:00:20;;;;;;;63.83;24.80;;;1.60;99.90;;;;;;5109293;28;20077;-62
2024/02/15 04:02:49;;;;;;;52.70;23.88;;;1.60;99.90;;;;;;5108972;28;20047;-58
2024/02/15 04:05:18;;;;;;;66.35;22.98;;;1.60;99.90;;;;;;5110355;27;20409;-59
2024/02/15 04:07:45;;;;;;;64.70;27.75;;;1.60;99.90;;;;;;5108351;28;20048;-61
2024/02/15 04:10:12;;;;;;;69.07;23.30;;;1.60;99.90;;;;;;5111548;28;20043;-58
2024/02/15 04:12:41;;;;;;;70.70;23.70;;;1.60;99.90;;;;;;5109777;28;20051;-58
2024/02/15 04:15:12;;;;;;;47.80;21.70;;;1.60;99.90;;;;;;5105837;28;20043;-60
2024/02/15 04:17:42;;;;;;;49.97;23.40;;;1.60;99.90;;;;;;5109024;28;20051;-59
2024/02/15 04:20:11;;;;;;;51.00;21.25;;;1.60;99.90;;;;;;5109250;28;20046;-60
2024/02/15 04:22:42;;;;;;;41.22;21.15;;;1.60;99.90;;;;;;5108267;28;20131;-63
2024/02/15 04:25:10;;;;;;;61.63;22.05;;;1.60;99.90;;;;;;5109190;27;20112;-58
2024/02/15 04:27:38;;;;;;;44.60;18.73;;;1.60;99.90;;;;;;5110429;28;20044;-58
2024/02/15 04:30:07;;;;;;;52.20;18.85;;;1.60;99.90;;;;;;5107244;28;20376;-60
2024/02/15 04:32:35;;;;;;;43.47;20.48;;;1.60;99.90;;;;;;5107532;28;20129;-58
2024/02/15 04:35:05;;;;;;;35.70;17.02;;;1.50;99.90;;;;;;5108239;28;20048;-59
2024/02/15 04:37:34;;;;;;;43.47;19.75;;;1.60;99.90;;;;;;5103912;28;20054;-58
2024/02/15 04:40:08;;;;;;;48.60;18.65;;;1.60;99.90;;;;;;5105656;28;20044;-59
2024/02/15 04:42:39;;;;;;;79.20;22.10;;;1.60;99.90;;;;;;5109142;28;20073;-59
2024/02/15 04:45:14;;;;;;;36.03;18.23;;;1.60;99.90;;;;;;5107781;27;20105;-60
2024/02/15 04:47:42;;;;;;;54.72;20.52;;;1.60;99.90;;;;;;5108721;28;20091;-58
2024/02/15 04:50:09;;;;;;;45.35;18.73;;;1.60;99.90;;;;;;5108324;28;20119;-58
2024/02/15 04:52:36;;;;;;;54.15;20.45;;;1.60;99.90;;;;;;5109777;28;20071;-63
2024/02/15 04:55:07;;;;;;;65.60;19.75;;;1.60;99.90;;;;;;5107411;28;20117;-60
2024/02/15 04:57:36;;;;;;;60.75;19.63;;;1.70;99.90;;;;;;5107509;28;20097;-58
2024/02/15 05:00:11;;;;;;;63.63;23.02;;;1.70;99.90;;;;;;5100950;28;20039;-62
2024/02/15 05:02:43;;;;;;;41.45;18.80;;;1.80;99.90;;;;;;5104094;28;20055;-59
2024/02/15 05:05:12;;;;;;;50.85;21.85;;;1.70;99.90;;;;;;5108974;28;20044;-61
2024/02/15 05:07:40;;;;;;;54.03;25.10;;;1.80;99.90;;;;;;5104417;28;20118;-58
2024/02/15 05:10:08;;;;;;;59.28;24.98;;;1.80;99.90;;;;;;5110322;28;20035;-61
2024/02/15 05:12:38;;;;;;;48.25;20.63;;;1.80;99.90;;;;;;5105390;28;20043;-62
2024/02/15 05:15:10;;;;;;;45.55;22.45;;;1.80;99.90;;;;;;5107927;28;20043;-59
2024/02/15 05:17:41;;;;;;;46.63;23.48;;;1.80;99.90;;;;;;5107940;28;20383;-59
2024/02/15 05:20:11;;;;;;;45.60;21.70;;;1.80;99.90;;;;;;5107351;28;20476;-64
2024/02/15 05:22:39;;;;;;;43.75;22.33;;;1.80;99.90;;;;;;5107002;28;20047;-58
2024/02/15 05:25:08;;;;;;;41.50;21.33;;;1.80;99.90;;;;;;5105238;28;20043;-58
2024/02/15 05:27:36;;;;;;;47.90;24.98;;;1.70;99.90;;;;;;5106474;27;20053;-59
2024/02/15 05:30:07;;;;;;;55.70;25.95;;;1.80;99.90;;;;;;5108843;28;20084;-59
2024/02/15 05:32:41;;;;;;;51.70;23.23;;;1.70;99.90;;;;;;5108601;28;20044;-58
2024/02/15 05:35:11;;;;;;;48.42;23.60;;;1.70;99.90;;;;;;5101933;28;20112;-60
2024/02/15 05:37:38;;;;;;;;;;;1.80;99.90;;;;;;5108805;28;20198;-60
2024/02/15 05:40:07;;;;;;;51.88;24.02;;;1.80;99.90;;;;;;5107188;27;19923;-60
2024/02/15 05:42:34;;;;;;;45.25;22.77;;;1.80;99.90;;;;;;5108032;28;20079;-57
2024/02/15 05:45:24;;;;;;;51.75;25.13;;;1.70;99.90;;;;;;5107828;28;20130;-58
2024/02/15 05:47:52;;;;;;;46.33;23.02;;;1.70;99.90;;;;;;5106336;28;20060;-58
2024/02/15 05:50:21;;;;;;;49.53;25.42;;;1.70;99.90;;;;;;5103927;28;20075;-63
2024/02/15 05:52:48;;;;;;;57.38;27.00;;;1.70;99.90;;;;;;5101443;28;20051;-60
2024/02/15 05:55:16;;;;;;;52.53;26.35;;;1.70;99.90;;;;;;5108271;28;20047;-58
2024/02/15 05:57:43;;;;;;;52.10;25.83;;;1.70;99.90;;;;;;5108852;28;20035;-60
2024/02/15 06:00:11;;;;;;;51.28;25.38;;;1.70;99.90;;;;;;5106983;28;20109;-59
2024/02/15 06:02:49;;;;;;;66.90;26.63;;;1.70;99.90;;;;;;5105491;28;20522;-60
2024/02/15 06:05:16;;;;;;;48.97;23.48;;;1.70;99.90;;;;;;5107725;28;20075;-59
2024/02/15 06:07:45;;;;;;;54.35;28.17;;;1.80;99.90;;;;;;5108362;28;20134;-58
2024/02/15 06:10:14;;;;;;;56.63;25.40;;;1.80;99.90;;;;;;5108563;28;20035;-59
2024/02/15 06:12:42;;;;;;;54.03;24.23;;;1.80;99.90;;;;;;5103856;28;20032;-59
2024/02/15 06:15:14;;;;;;;56.40;27.35;;;1.80;99.90;;;;;;5107421;28;20051;-57
2024/02/15 06:17:46;;;;;;;56.72;24.02;;;1.80;99.90;;;;;;5106752;28;20040;-61
2024/02/15 06:20:14;;;;;;;57.80;28.02;;;1.90;99.90;;;;;;5103588;28;20040;-64
2024/02/15 06:22:42;;;;;;;57.50;27.50;;;1.90;99.90;;;;;;5104735;28;20071;-59
2024/02/15 06:25:13;;;;;;;54.58;25.52;;;1.90;99.90;;;;;;5107465;28;20043;-67
2024/02/15 06:27:42;;;;;;;58.00;26.85;;;1.90;99.90;;;;;;5102028;28;20081;-61
2024/02/15 06:41:13;;;;;;;57.60;28.52;;;2.00;99.90;;;;;;5107281;28;20036;-59
2024/02/15 06:43:40;;;;;;;63.92;28.08;;;2.00;99.90;;;;;;5105949;28;20043;-61
2024/02/15 06:46:08;;;;;;;65.47;28.65;;;2.00;99.90;;;;;;5104560;28;20043;-59
2024/02/15 06:48:35;;;;;;;62.80;30.40;;;2.10;99.90;;;;;;5105210;28;20060;-58
2024/02/15 06:51:03;;;;;;;61.60;27.60;;;2.10;99.90;;;;;;5107132;28;20510;-62
2024/02/15 06:53:30;;;;;;;66.97;27.08;;;2.20;99.90;;;;;;5106718;28;20096;-58
2024/02/15 06:55:57;;;;;;;68.57;30.85;;;2.10;99.90;;;;;;5105405;28;20135;-61
2024/02/15 06:58:24;;;;;;;59.88;27.77;;;2.20;99.90;;;;;;5107659;28;20047;-60
2024/02/15 07:00:51;;;;;;;53.47;25.73;;;2.20;99.90;;;;;;5108056;28;20054;-63
2024/02/15 07:03:18;;;;;;;62.20;29.38;;;2.20;99.90;;;;;;5102761;28;20048;-61
2024/02/15 07:05:45;;;;;;;65.75;28.50;;;2.20;99.90;;;;;;5104147;28;20449;-59
2024/02/15 07:08:15;;;;;;;63.10;28.75;;;2.30;99.90;;;;;;5106466;28;20039;-59
2024/02/15 07:10:42;;;;;;;57.65;25.05;;;2.30;99.90;;;;;;5107126;28;20040;-58
2024/02/15 07:13:10;;;;;;;62.65;29.52;;;2.30;99.90;;;;;;5105285;28;20050;-61
2024/02/15 07:15:38;;;;;;;63.35;31.52;;;2.30;99.90;;;;;;5105908;28;20055;-58
2024/02/15 07:18:06;;;;;;;59.63;28.58;;;2.30;99.90;;;;;;5107453;28;20126;-58
2024/02/15 07:20:34;;;;;;;50.85;26.50;;;2.30;99.90;;;;;;5104308;28;20059;-59
2024/02/15 07:23:01;;;;;;;61.58;29.15;;;2.30;99.90;;;;;;5106828;28;20048;-63
2024/02/15 07:25:28;;;;;;;67.30;32.08;;;2.30;99.90;;;;;;5105869;28;20040;-58
2024/02/15 07:27:56;;;;;;;69.72;30.40;;;2.30;99.90;;;;;;5106803;28;20040;-61
2024/02/15 07:30:23;;;;;;;69.05;28.48;;;2.40;99.90;;;;;;5107965;28;20096;-61
2024/02/15 07:32:52;;;;;;;77.57;30.92;;;2.40;99.90;;;;;;5106777;28;20044;-58
2024/02/15 07:35:19;;;;;;;72.88;31.90;;;2.40;99.90;;;;;;5107343;28;20666;-61
2024/02/15 07:37:55;;;;;;;64.90;31.08;;;2.40;99.90;;;;;;5102837;28;20453;-64
2024/02/15 07:40:22;;;;;;;65.93;30.58;;;2.50;99.90;;;;;;5104707;28;20067;-60
2024/02/15 07:42:49;;;;;;;61.67;28.20;;;2.50;99.90;;;;;;5107566;28;20402;-58
2024/02/15 07:45:17;;;;;;;61.50;31.08;;;2.50;99.90;;;;;;5109176;28;20040;-58
2024/02/15 07:47:45;;;;;;;53.25;27.95;;;2.50;99.90;;;;;;5111216;28;20083;-65
2024/02/15 07:50:22;;;;;;;65.10;30.98;;;2.60;99.90;;;;;;5107440;28;20478;-61
2024/02/15 07:52:51;;;;;;;58.75;27.55;;;2.50;99.90;;;;;;5111355;28;20078;-60
2024/02/15 07:55:18;;;;;;;53.78;26.80;;;2.60;99.90;;;;;;5107997;28;20408;-58
2024/02/15 07:57:48;;;;;;;55.40;27.05;;;2.60;99.90;;;;;;5110534;28;20047;-64
2024/02/15 08:00:16;;;;;;;;;;;2.60;99.90;;;;;;5112180;28;20040;-59
2024/02/15 08:02:43;;;;;;;61.70;27.33;;;2.60;99.90;;;;;;5109591;28;19973;-59
2024/02/15 08:05:11;;;;;;;58.45;27.65;;;2.70;99.90;;;;;;5110601;28;20043;-58
2024/02/15 08:07:47;;;;;;;57.25;29.20;;;2.70;99.90;;;;;;5106918;28;20050;-59
2024/02/15 08:10:14;;;;;;;56.72;27.45;;;2.70;99.90;;;;;;5110527;28;20062;-60
2024/02/15 08:12:43;;;;;;;56.25;24.85;;;2.70;99.90;;;;;;5109859;28;20051;-59
2024/02/15 08:15:13;;;;;;;61.17;29.25;;;2.70;99.90;;;;;;5111306;28;20036;-59
2024/02/15 08:17:48;;;;;;;59.30;28.20;;;2.70;99.90;;;;;;5110880;28;20066;-61
2024/02/15 08:20:21;;;;;;;52.05;27.88;;;2.70;99.90;;;;;;5110912;28;20130;-60
2024/02/15 08:22:48;;;;;;;68.80;27.02;;;2.70;99.90;;;;;;5108879;28;20035;-59
2024/02/15 08:25:15;;;;;;;57.15;28.88;;;2.70;99.90;;;;;;5108658;28;20044;-59
2024/02/15 08:27:44;;;;;;;55.13;28.50;;;2.70;99.90;;;;;;5109815;28;20043;-58
2024/02/15 08:30:14;;;;;;;62.92;27.73;;;2.70;99.90;;;;;;5110871;28;20096;-59
2024/02/15 08:32:42;;;;;;;57.58;27.17;;;2.70;99.90;;;;;;5108348;28;20793;-57
2024/02/15 08:35:10;;;;;;;52.00;24.80;;;2.80;99.90;;;;;;5109759;27;20050;-59
2024/02/15 08:37:39;;;;;;;48.78;24.92;;;2.80;99.90;;;;;;5106727;28;20119;-60
2024/02/15 08:40:10;;;;;;;44.08;23.95;;;2.80;99.90;;;;;;5109407;28;20413;-59
2024/02/15 08:42:43;;;;;;;46.25;23.80;;;2.90;99.90;;;;;;5109734;28;20048;-59
2024/02/15 08:45:12;;;;;;;37.95;19.77;;;2.80;99.90;;;;;;5107877;28;20051;-60
2024/02/15 08:47:41;;;;;;;42.38;23.48;;;2.90;99.90;;;;;;5109932;28;20078;-58
2024/02/15 08:50:09;;;;;;;48.05;25.05;;;2.90;99.90;;;;;;5107230;28;20050;-58
2024/02/15 08:52:37;;;;;;;45.90;23.63;;;2.90;99.90;;;;;;5109668;28;20068;-59
2024/02/15 08:55:06;;;;;;;43.63;23.55;;;2.90;99.90;;;;;;5106052;28;20040;-60
2024/02/15 08:57:34;;;;;;;45.80;24.52;;;2.90;99.90;;;;;;5107427;28;20132;-59
2024/02/15 09:00:13;;;;;;;47.17;27.65;;;2.90;99.90;;;;;;5109613;28;20101;-64
2024/02/15 09:02:40;;;;;;;47.33;23.70;;;2.90;99.90;;;;;;5106543;28;20598;-59
2024/02/15 09:05:07;;;;;;;46.55;20.80;;;3.00;99.90;;;;;;5109191;28;20039;-60
2024/02/15 09:07:36;;;;;;;43.63;21.92;;;3.00;99.90;;;;;;5105897;28;20116;-60
2024/02/15 09:10:04;;;;;;;46.75;24.02;;;2.90;99.90;;;;;;5110445;28;20055;-60
2024/02/15 09:12:31;;;;;;;44.10;23.02;;;3.00;99.90;;;;;;5108633;28;20050;-61
2024/02/15 09:14:58;;;;;;;47.72;26.63;;;3.00;99.90;;;;;;5106848;28;20051;-59
2024/02/15 09:17:26;;;;;;;51.97;23.75;;;3.00;99.90;;;;;;5106116;28;20500;-61
2024/02/15 09:19:54;;;;;;;47.50;24.02;;;3.00;99.90;;;;;;5106023;28;20047;-58
2024/02/15 09:22:21;;;;;;;46.40;23.88;;;3.10;99.90;;;;;;5105734;28;20051;-64
2024/02/15 09:24:48;;;;;;;44.55;23.02;;;3.10;99.90;;;;;;5104368;28;20078;-62
2024/02/15 09:27:15;;;;;;;49.17;23.58;;;3.10;99.90;;;;;;5107764;28;20043;-63
2024/02/15 09:29:42;;;;;;;45.70;22.75;;;3.20;99.90;;;;;;5109317;28;20035;-58
2024/02/15 09:32:09;;;;;;;49.83;24.98;;;3.30;99.90;;;;;;5108983;28;20115;-60
2024/02/15 09:34:36;;;;;;;48.22;26.00;;;3.30;99.90;;;;;;5107960;28;20370;-59
2024/02/15 09:37:04;;;;;;;53.50;26.63;;;3.30;99.90;;;;;;5108311;28;20335;-59
2024/02/15 09:39:31;;;;;;;52.03;24.83;;;3.30;99.90;;;;;;5106673;28;20051;-60
2024/02/15 09:41:58;;;;;;;53.03;24.10;;;3.40;99.90;;;;;;5106597;28;20040;-60
2024/02/15 09:44:29;;;;;;;47.03;24.45;;;3.40;99.90;;;;;;5105667;28;20044;-60
2024/02/15 09:47:05;;;;;;;51.92;26.38;;;3.50;99.90;;;;;;5106710;28;20086;-59
2024/02/15 09:49:39;;;;;;;52.65;24.48;;;3.50;99.90;;;;;;5103852;28;20043;-59
2024/02/15 09:52:11;;;;;;;49.00;24.10;;;3.40;99.90;;;;;;5106811;28;20100;-59
2024/02/15 09:54:43;;;;;;;53.47;24.00;;;3.50;99.90;;;;;;5105044;28;20386;-62
2024/02/15 09:57:11;;;;;;;43.05;24.08;;;3.50;99.90;;;;;;5105554;28;20044;-61
2024/02/15 09:59:39;;;;;;;45.47;23.40;;;3.50;99.90;;;;;;5108780;28;20108;-62
2024/02/15 10:02:10;;;;;;;44.88;23.38;;;3.50;99.90;;;;;;5107792;28;20131;-63
2024/02/15 10:04:39;;;;;;;42.42;23.60;;;3.50;99.90;;;;;;5105323;28;20070;-61
2024/02/15 10:07:09;;;;;;;39.55;24.02;;;3.50;99.90;;;;;;5106890;28;20039;-60
2024/02/15 10:09:36;;;;;;;46.40;25.00;;;3.50;99.90;;;;;;5105075;28;20043;-59
2024/02/15 10:12:06;;;;;;;40.92;23.42;;;3.50;99.90;;;;;;5109418;28;20032;-60
2024/02/15 10:14:34;;;;;;;43.30;24.67;;;3.60;99.90;;;;;;5107573;28;20058;-60
2024/02/15 10:17:11;;;;;;;35.17;22.17;;;3.60;99.90;;;;;;5108369;28;20051;-59
2024/02/15 10:19:38;;;;;;;43.38;23.13;;;3.60;99.90;;;;;;5106997;28;20126;-65
2024/02/15 10:22:10;;;;;;;37.53;21.20;;;3.60;99.90;;;;;;5105861;28;20043;-60
2024/02/15 10:24:39;;;;;;;44.97;25.70;;;3.60;99.90;;;;;;5108229;28;20104;-60
2024/02/15 10:27:07;;;;;;;43.85;24.58;;;3.60;99.90;;;;;;5106367;28;20649;-62
2024/02/15 10:29:34;;;;;;;44.33;25.25;;;3.60;99.90;;;;;;5105683;28;20122;-61
2024/02/15 10:32:02;;;;;;;43.70;25.63;;;3.60;99.90;;;;;;5108087;28;20047;-63
2024/02/15 10:34:31;;;;;;;50.70;23.40;;;3.60;99.90;;;;;;5103520;28;20043;-58
2024/02/15 10:37:20;;;;;;;41.65;23.05;;;3.60;99.90;;;;;;5104931;28;20071;-60
2024/02/15 10:40:07;;;;;;;41.15;25.63;;;3.60;99.90;;;;;;5104338;28;20043;-63
2024/02/15 10:42:35;;;;;;;44.33;25.60;;;3.70;99.90;;;;;;5103893;28;20035;-59
2024/02/15 10:45:10;;;;;;;47.80;26.15;;;3.70;99.90;;;;;;5101806;28;20044;-59
2024/02/15 10:47:40;;;;;;;42.25;23.70;;;3.70;99.90;;;;;;5107827;28;20411;-60
2024/02/15 10:50:09;;;;;;;40.58;23.52;;;3.70;99.90;;;;;;5101654;28;20368;-67
2024/02/15 10:52:43;;;;;;;34.83;22.40;;;3.80;99.90;;;;;;5105253;28;20043;-59
2024/02/15 10:55:13;;;;;;;55.05;28.50;;;3.90;99.90;;;;;;5094951;28;20040;-59
2024/02/15 10:57:46;;;;;;;44.78;24.23;;;3.80;99.90;;;;;;5100395;28;20070;-63
2024/02/15 11:00:21;;;;;;;36.83;23.48;;;3.90;99.90;;;;;;5107448;28;20050;-59
2024/02/15 11:03:02;;;;;;;42.47;22.95;;;3.80;99.90;;;;;;5103410;28;20502;-63
2024/02/15 11:05:37;;;;;;;42.90;22.65;;;3.80;99.90;;;;;;5105034;28;20040;-63
2024/02/15 11:08:07;;;;;;;41.78;24.10;;;3.80;99.90;;;;;;5105940;28;20044;-65
2024/02/15 11:10:36;;;;;;;39.85;21.88;;;3.80;99.90;;;;;;5108306;28;20075;-59
2024/02/15 11:13:04;;;;;;;47.25;25.58;;;3.80;99.90;;;;;;5103303;28;20440;-61
2024/02/15 11:15:46;;;;;;;40.80;25.27;;;3.80;99.90;;;;;;5104491;28;20047;-63
2024/02/15 11:18:33;;;;;;;38.80;22.52;;;3.90;99.90;;;;;;5104651;28;20592;-59
2024/02/15 11:21:00;;;;;;;42.92;25.40;;;3.80;99.90;;;;;;5108357;28;20173;-62
2024/02/15 11:23:27;;;;;;;41.45;24.85;;;3.80;99.90;;;;;;5109766;28;20055;-61
2024/02/15 11:26:04;;;;;;;38.33;24.10;;;3.80;99.90;;;;;;5109663;28;20047;-62
2024/02/15 11:28:36;;;;;;;36.42;20.05;;;3.80;99.90;;;;;;5109916;28;20064;-60
2024/02/15 11:31:04;;;;;;;38.58;22.42;;;3.80;99.90;;;;;;5105870;27;20123;-63
2024/02/15 11:33:34;;;;;;;37.47;23.48;;;3.80;99.90;;;;;;5110697;28;20482;-61
2024/02/15 11:36:12;;;;;;;49.15;25.60;;;3.80;99.90;;;;;;5107299;28;20583;-60
2024/02/15 11:38:44;;;;;;;44.67;27.13;;;3.80;99.90;;;;;;5106445;28;20398;-59
2024/02/15 11:41:11;;;;;;;35.22;24.20;;;3.80;99.90;;;;;;5107930;28;20039;-59
2024/02/15 11:43:49;;;;;;;35.97;22.20;;;3.70;99.90;;;;;;5106550;28;20031;-61
2024/02/15 11:46:18;;;;;;;43.00;23.58;;;3.70;99.90;;;;;;5110560;27;20048;-61
2024/02/15 11:48:46;;;;;;;40.42;24.65;;;3.70;99.90;;;;;;5106943;28;20550;-60
2024/02/15 11:51:36;;;;;;;46.10;25.80;;;3.70;99.90;;;;;;5104099;28;20134;-60
2024/02/15 11:54:11;;;;;;;;;;;3.70;99.90;;;;;;5109187;28;20047;-63
2024/02/15 11:56:47;;;;;;;56.58;25.90;;;3.70;99.90;;;;;;5107495;28;20439;-59
2024/02/15 11:59:29;;;;;;;49.05;24.95;;;3.70;99.90;;;;;;5107193;28;20406;-58
2024/02/15 12:18:47;;;;;;;48.28;24.90;;;3.90;99.90;;;;;;5108494;28;20047;-60
2024/02/15 12:21:18;;;;;;;46.85;23.58;;;4.00;99.90;;;;;;5108162;28;20039;-62
2024/02/15 12:23:45;;;;;;;55.92;29.33;;;4.10;99.90;;;;;;5109005;28;20474;-64
2024/02/15 12:26:14;;;;;;;47.00;24.88;;;4.20;99.90;;;;;;5106808;28;20054;-59
2024/02/15 12:28:42;;;;;;;45.40;24.00;;;4.20;99.90;;;;;;5101990;28;20040;-59
2024/02/15 12:31:14;;;;;;;45.53;26.00;;;4.30;99.90;;;;;;5108561;28;20063;-62
2024/02/15 12:33:41;;;;;;;51.10;25.92;;;4.30;99.90;;;;;;5107048;28;20191;-61
2024/02/15 12:36:09;;;;;;;46.58;25.17;;;4.30;99.90;;;;;;5109756;28;20052;-58
2024/02/15 12:38:37;;;;;;;45.15;24.02;;;4.20;99.90;;;;;;5105579;28;20062;-59
2024/02/15 12:41:21;;;;;;;44.70;22.98;;;4.20;99.90;;;;;;5108162;28;20039;-60
2024/02/15 12:43:54;;;;;;;40.70;24.15;;;4.20;99.90;;;;;;5103106;28;20123;-62
2024/02/15 12:46:22;;;;;;;38.42;23.08;;;4.20;99.90;;;;;;5108133;28;20051;-58
2024/02/15 12:48:49;;;;;;;39.63;23.77;;;4.20;99.90;;;;;;5101952;28;20151;-61
2024/02/15 12:51:17;;;;;;;41.13;23.73;;;4.30;99.90;;;;;;5106006;28;20039;-62
2024/02/15 12:53:44;;;;;;;45.13;23.25;;;4.20;99.90;;;;;;5106951;28;20071;-61
2024/02/15 12:56:20;;;;;;;43.15;23.58;;;4.20;99.90;;;;;;5109281;28;20443;-60
2024/02/15 12:58:47;;;;;;;37.67;24.30;;;4.20;99.90;;;;;;5109456;28;20035;-65
2024/02/15 13:01:14;;;;;;;40.83;22.02;;;4.20;99.90;;;;;;5104659;28;20596;-62
2024/02/15 13:03:41;;;;;;;36.95;21.98;;;4.10;99.90;;;;;;5107457;28;20119;-61
2024/02/15 13:06:08;;;;;;;38.67;23.40;;;4.10;99.90;;;;;;5105687;28;20075;-59
2024/02/15 13:08:35;;;;;;;40.53;20.13;;;4.10;99.90;;;;;;5105494;28;20051;-59
2024/02/15 13:11:03;;;;;;;37.67;21.58;;;4.10;99.90;;;;;;5108987;28;20075;-64
2024/02/15 13:13:30;;;;;;;36.40;22.08;;;4.00;99.90;;;;;;5107271;28;20039;-58
2024/02/15 13:15:57;;;;;;;35.30;20.23;;;3.90;99.90;;;;;;5105625;28;20549;-60